Latest Coastal Weather Observations for Dennes Point

IDT60701

Issued at 6:02 am EST Friday 21 June 2024 (issued every 10 minutes, with the page automatically refreshed every 10 minutes)

About coastal observations | Map of coastal stations | Coastal observations for TAS | Marine services | Other Formats
Station Details ID: 094255 Name: DENNES POINT Lat: -43.06 Lon: 147.36 Height: 5.67 m
Data from the previous 72 hours. | See also: Recent months at Dennes Point
Date/Time
EST
Wind Sea
Height
m
Swell Vis
km
Cloud Weather Temp
°C
Press
MSL
hPa
Rain since
9am
mm
Dir  Spd
kts
Gust
kts
Height
m
Period
s
Dir
21/06:00am SW 7 10 - - - - - - - 8.2 1020.9 0.4
21/05:30am SW 6 7 - - - - - - - 8.3 1020.6 0.4
21/05:00am SW 7 9 - - - - - - - 8.3 1020.3 0.4
21/04:30am SW 5 7 - - - - - - - 8.2 1020.2 0.4
21/04:00am WSW 8 9 - - - - - - - 8.9 1020.1 0.4
21/03:30am SW 6 7 - - - - - - - 8.2 1019.9 0.4
21/03:00am SW 7 9 - - - - - - - 8.7 1020.0 0.4
21/02:30am SW 7 9 - - - - - - - 9.1 1019.9 0.4
21/02:00am SW 6 9 - - - - - - - 8.9 1019.8 0.4
21/01:30am WSW 5 8 - - - - - - - 9.1 1019.7 0.4
21/01:00am SW 5 6 - - - - - - - 8.8 1019.7 0.4
21/12:30am SW 5 6 - - - - - - - 8.7 1019.9 0.4
21/12:00am SW 4 6 - - - - - - - 8.5 1020.1 0.4
 
Date/Time
EST
Wind Sea
Height
m
Swell Vis
km
Cloud Weather Temp
°C
Press
MSL
hPa
Rain since
9am
mm
Dir  Spd
kts
Gust
kts
Height
m
Period
s
Dir
20/11:30pm SSW 4 5 - - - - - - - 8.2 1020.3 0.4
20/11:00pm SSW 4 6 - - - - - - - 8.2 1020.4 0.4
20/10:30pm SW 6 8 - - - - - - - 9.0 1020.2 0.4
20/10:00pm SW 4 6 - - - - - - - 8.9 1020.1 0.4
20/09:30pm SW 4 5 - - - - - - - 8.9 1020.1 0.4
20/09:00pm SSW 3 4 - - - - - - - 8.8 1020.3 0.4
20/08:30pm SSW 3 5 - - - - - - - 9.0 1020.3 0.4
20/08:00pm SSW 5 8 - - - - - - - 9.4 1020.2 0.4
20/07:30pm SSW 5 7 - - - - - - - 9.3 1020.1 0.4
20/07:00pm SSW 5 8 - - - - - - - 9.5 1019.9 0.4
20/06:30pm SSW 4 5 - - - - - - - 9.2 1019.7 0.4
20/06:00pm SSW 4 6 - - - - - - - 9.1 1019.5 0.4
20/05:30pm SSW 4 4 - - - - - - - 8.9 1019.4 0.4
20/05:00pm SSW 4 5 - - - - - - - 9.2 1019.3 0.4
20/04:30pm SSW 4 5 - - - - - - - 9.3 1019.1 0.4
20/04:00pm SSW 4 7 - - - - - - - 9.6 1019.0 0.4
20/03:30pm SSW 5 6 - - - - - - - 9.9 1019.0 0.4
20/03:00pm SW 5 9 - - - - - - - 10.3 1019.0 0.4
20/02:30pm S 5 9 - - - - - - - 10.2 1018.9 0.4
20/02:00pm SSW 6 9 - - - - - - - 10.6 1018.7 0.4
20/01:30pm SSW 3 5 - - - - - - - 11.3 1018.7 0.4
20/01:00pm SSW 7 10 - - - - - - - 9.9 1019.0 0.4
20/12:30pm S 5 8 - - - - - - - 10.1 1019.0 0.4
20/12:00pm SW 6 8 - - - - - - - 10.4 1018.9 0.2
20/11:30am SW 5 7 - - - - - - - 9.8 1019.2 0.2
20/11:00am SW 4 6 - - - - - - - 10.2 1019.3 0.2
20/10:30am SW 5 9 - - - - - - - 9.9 1019.4 0.0
20/10:00am SW 6 7 - - - - - - - 9.5 1019.4 0.0
20/09:30am SW 4 6 - - - - - - - 9.2 1019.3 0.0
20/09:00am SW 4 6 - - - - - - Recent precip. 8.9 1019.1 2.0
20/08:30am SW 6 10 - - - - - - - 8.7 1018.9 2.0
20/08:00am SW 5 9 - - - - - - - 8.5 1018.7 1.8
20/07:30am SW 5 6 - - - - - - - 8.4 1018.6 1.6
20/07:00am SW 7 10 - - - - - - - 8.6 1018.3 1.4
20/06:30am SW 6 9 - - - - - - - 8.6 1018.2 1.4
20/06:00am SW 6 9 - - - - - - Recent precip. 8.4 1018.0 1.2
20/05:30am SW 5 7 - - - - - - - 8.3 1017.8 1.2
20/05:00am SW 6 7 - - - - - - - 8.3 1017.7 1.0
20/04:30am SW 7 11 - - - - - - - 8.4 1017.6 1.0
20/04:00am SW 7 10 - - - - - - - 8.2 1017.7 0.6
20/03:30am WSW 6 10 - - - - - - - 8.2 1017.7 0.6
20/03:00am SW 6 8 - - - - - - - 8.0 1017.8 0.6
20/02:30am SW 7 11 - - - - - - - 8.0 1017.8 0.6
20/02:00am SW 5 7 - - - - - - - 8.0 1017.9 0.6
20/01:30am SW 5 7 - - - - - - - 8.1 1017.8 0.4
20/01:00am SW 5 6 - - - - - - - 7.9 1017.9 0.4
20/12:30am SW 5 6 - - - - - - - 7.7 1017.8 0.4
20/12:00am WSW 6 10 - - - - - - - 7.8 1017.8 0.4
 
Date/Time
EST
Wind Sea
Height
m
Swell Vis
km
Cloud Weather Temp
°C
Press
MSL
hPa
Rain since
9am
mm
Dir  Spd
kts
Gust
kts
Height
m
Period
s
Dir
19/11:30pm SW 6 8 - - - - - - - 7.5 1017.8 0.4
19/11:00pm SW 5 6 - - - - - - - 7.1 1017.8 0.4
19/10:30pm SW 4 6 - - - - - - - 7.9 1017.7 0.4
19/10:00pm SSW 5 7 - - - - - - - 7.4 1017.7 0.4
19/09:30pm SW 5 6 - - - - - - - 7.3 1017.7 0.4
19/09:00pm SW 6 7 - - - - - - - 7.9 1017.7 0.4
19/08:30pm SW 6 7 - - - - - - - 7.5 1017.7 0.4
19/08:00pm SW 5 5 - - - - - - - 7.0 1017.6 0.4
19/07:30pm SW 5 8 - - - - - - - 7.9 1017.7 0.4
19/07:00pm SSW 6 7 - - - - - - - 7.8 1017.5 0.4
19/06:30pm SW 6 8 - - - - - - - 8.1 1017.4 0.4
19/06:00pm SSW 5 6 - - - - - - - 7.1 1017.2 0.4
19/05:30pm SW 5 6 - - - - - - - 8.0 1017.0 0.4
19/05:00pm SSW 5 7 - - - - - - - 7.7 1016.9 0.4
19/04:30pm SW 4 5 - - - - - - - 7.9 1016.7 0.2
19/04:00pm SW 4 6 - - - - - - - 8.8 1016.6 0.2
19/03:30pm WSW 6 8 - - - - - - - 9.6 1016.5 0.2
19/03:00pm WSW 6 8 - - - - - - - 10.0 1016.5 0.2
19/02:30pm SW 6 7 - - - - - - - 9.1 1016.5 0.2
19/02:00pm WSW 6 8 - - - - - - - 9.1 1016.5 0.2
19/01:30pm WSW 6 8 - - - - - - - 9.1 1016.6 0.2
19/01:00pm SW 4 5 - - - - - - - 8.9 1016.9 0.2
19/12:30pm WSW 6 8 - - - - - - - 9.4 1017.1 0.2
19/12:00pm WSW 8 9 - - - - - - - 9.2 1017.3 0.2
19/11:30am WSW 7 9 - - - - - - - 8.5 1017.5 0.2
19/11:00am WSW 5 7 - - - - - - - 8.7 1018.0 0.2
19/10:30am W 5 7 - - - - - - - 8.7 1018.2 0.2
19/10:00am WSW 4 6 - - - - - - - 8.2 1018.2 0.0
19/09:30am SW 4 6 - - - - - - - 7.7 1018.2 0.0
19/09:00am SW 4 5 - - - - - - - 7.6 1018.2 1.2
19/08:30am WSW 7 8 - - - - - - - 7.5 1018.2 1.2
19/08:00am WSW 7 9 - - - - - - - 7.0 1018.0 1.2
19/07:30am WSW 8 10 - - - - - - - 6.7 1017.9 1.2
19/07:00am WSW 9 11 - - - - - - - 7.1 1017.9 1.2
19/06:30am WSW 6 9 - - - - - - - 7.1 1017.7 1.2
19/06:00am SSW 6 7 - - - - - - - 6.8 1017.5 1.2
19/05:30am WSW 6 9 - - - - - - - 6.8 1017.4 1.2
19/05:00am W 9 11 - - - - - - - 6.7 1017.5 1.2
19/04:30am WSW 7 10 - - - - - - - 6.8 1017.5 1.2
19/04:00am WSW 8 10 - - - - - - - 7.0 1017.6 1.2
19/03:30am W 9 11 - - - - - - - 6.8 1018.0 1.2
19/03:00am WSW 7 9 - - - - - - Recent precip. 7.0 1018.1 1.2
19/02:30am WSW 7 9 - - - - - - - 6.9 1018.3 0.8
19/02:00am SW 7 9 - - - - - - - 6.5 1018.4 0.8
19/01:30am WSW 7 9 - - - - - - - 7.0 1018.5 0.8
19/01:00am W 7 9 - - - - - - - 7.0 1018.6 0.6
19/12:30am WSW 7 8 - - - - - - - 7.0 1018.7 0.6
19/12:00am WSW 7 8 - - - - - - Recent precip. 7.0 1018.9 0.2
 
Date/Time
EST
Wind Sea
Height
m
Swell Vis
km
Cloud Weather Temp
°C
Press
MSL
hPa
Rain since
9am
mm
Dir  Spd
kts
Gust
kts
Height
m
Period
s
Dir
18/11:30pm SW 6 7 - - - - - - - 7.1 1019.0 0.2
18/11:00pm SW 4 7 - - - - - - - 7.3 1019.2 0.0
18/10:30pm SSW 4 7 - - - - - - - 7.5 1019.3 0.0
18/10:00pm SSW 4 6 - - - - - - - 7.8 1019.3 0.0
18/09:30pm SSW 4 6 - - - - - - - 7.7 1019.4 0.0
18/09:00pm SW 4 5 - - - - - - - 7.1 1019.4 0.0
18/08:30pm SSW 4 5 - - - - - - - 7.4 1019.6 0.0
18/08:00pm SW 4 5 - - - - - - - 7.2 1019.6 0.0
18/07:30pm WSW 5 7 - - - - - - - 8.1 1019.5 0.0
18/07:00pm SSW 3 4 - - - - - - - 8.1 1019.5 0.0
18/06:30pm SSE 2 4 - - - - - - - 8.9 1019.4 0.0
18/06:00pm CALM 0 1 - - - - - - - 8.7 1019.5 0.0
18/05:30pm SSW 3 6 - - - - - - - 8.9 1019.2 0.0
18/05:00pm S 3 4 - - - - - - - 9.2 1019.2 0.0
18/04:30pm W 5 6 - - - - - - - 9.6 1019.1 0.0
18/04:00pm W 4 5 - - - - - - - 10.0 1019.2 0.0
18/03:30pm W 4 5 - - - - - - - 10.6 1019.1 0.0
18/03:00pm SW 3 5 - - - - - - - 9.4 1019.1 0.0
18/02:30pm SW 5 8 - - - - - - - 9.8 1018.9 0.0
18/02:00pm WSW 8 9 - - - - - - - 10.5 1018.9 0.0
18/01:30pm WSW 5 6 - - - - - - - 10.8 1019.1 0.0
18/01:00pm WSW 4 5 - - - - - - - 9.8 1019.5 0.0
18/12:30pm SW 5 6 - - - - - - - 9.5 1019.9 0.0
18/12:00pm SW 5 6 - - - - - - - 9.4 1020.3 0.0
18/11:30am SW 5 7 - - - - - - - 9.2 1020.5 0.0
18/11:00am WSW 5 7 - - - - - - - 8.6 1020.8 0.0
18/10:30am WSW 6 8 - - - - - - - 8.4 1021.1 0.0
18/10:00am WSW 8 11 - - - - - - - 7.9 1021.3 0.0
18/09:30am SW 6 9 - - - - - - - 7.6 1021.4 0.0
18/09:00am SW 5 7 - - - - - - Recent precip. 7.4 1021.3 1.2
18/08:30am SSW 6 8 - - - - - - - 7.2 1021.3 1.0
18/08:00am SW 5 7 - - - - - - - 6.8 1021.2 1.0
18/07:30am WSW 6 8 - - - - - - - 7.2 1021.2 1.0
18/07:00am SW 6 7 - - - - - - - 7.2 1021.2 1.0
18/06:30am SW 4 6 - - - - - - - 7.2 1021.1 1.0

Other formats

Comma delimited format used in spreadsheet applications
http://www.bom.gov.au/fwo/IDT60701/IDT60701.94988.axf

JavaScript Object Notation format (JSON) in row-major order
http://www.bom.gov.au/fwo/IDT60701/IDT60701.94988.json

Data quality

Most of these data are generated automatically and are frequently updated. Quality checks on data are not normally performed. It is possible for incorrect values to appear. Refer to information at About Latest Weather Observations and please check the disclaimer before using these data.